createdAt,value
2019-02-02T00:01:20.129Z,22.10
2019-02-02T00:03:53.236Z,22.00
2019-02-02T00:06:27.488Z,22.00
2019-02-02T00:09:01.537Z,21.90
2019-02-02T00:11:35.002Z,21.80
2019-02-02T00:14:08.824Z,21.80
2019-02-02T00:16:43.191Z,21.80
2019-02-02T00:19:16.281Z,21.70
2019-02-02T00:21:50.549Z,21.60
2019-02-02T00:24:23.665Z,21.60
2019-02-02T00:26:56.845Z,21.60
2019-02-02T00:29:30.205Z,21.60
2019-02-02T00:32:03.354Z,21.60
2019-02-02T00:34:37.846Z,21.60
2019-02-02T00:37:10.948Z,21.60
2019-02-02T00:39:44.310Z,21.60
2019-02-02T00:42:17.405Z,21.60
2019-02-02T00:44:50.606Z,21.50
2019-02-02T00:47:23.886Z,21.50
2019-02-02T00:49:58.741Z,21.40
2019-02-02T00:52:34.153Z,21.40
2019-02-02T00:55:08.750Z,21.40
2019-02-02T00:57:52.665Z,21.40
2019-02-02T01:00:20.277Z,21.30
2019-02-02T01:02:54.103Z,21.30
2019-02-02T01:05:28.226Z,21.30
2019-02-02T01:08:02.542Z,21.20
2019-02-02T01:10:37.602Z,21.10
2019-02-02T01:13:10.946Z,21.10
2019-02-02T01:15:47.576Z,21.10
2019-02-02T01:18:20.663Z,21.00
2019-02-02T01:20:54.258Z,21.00
2019-02-02T01:23:27.327Z,20.90
2019-02-02T01:26:08.353Z,20.90
2019-02-02T01:28:41.572Z,20.80
2019-02-02T01:31:19.526Z,20.80
2019-02-02T01:33:52.634Z,20.80
2019-02-02T01:36:26.314Z,20.70
2019-02-02T01:38:59.410Z,20.70
2019-02-02T01:41:32.470Z,20.60
2019-02-02T01:44:07.131Z,20.60
2019-02-02T01:46:42.434Z,20.60
2019-02-02T01:49:17.149Z,20.60
2019-02-02T01:51:50.472Z,20.60
2019-02-02T01:54:24.856Z,20.60
2019-02-02T01:57:01.683Z,20.70
2019-02-02T01:59:36.668Z,20.70
2019-02-02T02:02:10.542Z,20.80
2019-02-02T02:04:43.944Z,20.80
2019-02-02T02:07:17.084Z,20.80
2019-02-02T02:09:50.727Z,20.80
2019-02-02T02:12:23.929Z,20.80
2019-02-02T02:14:57.552Z,20.80
2019-02-02T02:17:30.815Z,20.80
2019-02-02T02:20:05.184Z,20.80
2019-02-02T02:22:41.185Z,20.80
2019-02-02T02:25:15.116Z,20.70
2019-02-02T02:27:48.482Z,20.70
2019-02-02T02:30:27.307Z,20.70
2019-02-02T02:33:06.770Z,20.60
2019-02-02T02:35:40.855Z,20.60
2019-02-02T02:38:14.050Z,20.60
2019-02-02T02:40:48.116Z,20.60
2019-02-02T02:43:21.576Z,20.60
2019-02-02T02:45:57.447Z,20.60
2019-02-02T02:48:31.166Z,20.50
2019-02-02T02:51:06.018Z,20.60
2019-02-02T02:53:39.509Z,20.50
2019-02-02T02:56:12.604Z,20.50
2019-02-02T02:58:46.859Z,20.40
2019-02-02T03:01:22.547Z,20.30
2019-02-02T03:03:55.570Z,20.30
2019-02-02T03:06:28.802Z,20.20
2019-02-02T03:09:03.037Z,20.10
2019-02-02T03:11:37.633Z,20.00
2019-02-02T03:14:10.923Z,19.90
2019-02-02T03:16:45.735Z,19.90
2019-02-02T03:19:18.735Z,19.80
2019-02-02T03:21:51.869Z,19.70
2019-02-02T03:24:25.972Z,19.70
2019-02-02T03:26:59.296Z,19.70
2019-02-02T03:29:32.622Z,19.70
2019-02-02T03:32:06.199Z,19.60
2019-02-02T03:34:40.818Z,19.60
2019-02-02T03:37:14.026Z,19.50
2019-02-02T03:39:47.148Z,19.50
2019-02-02T03:42:20.205Z,19.40
2019-02-02T03:44:53.427Z,19.40
2019-02-02T03:47:32.842Z,19.30
2019-02-02T03:50:06.940Z,19.20
2019-02-02T03:52:43.449Z,19.20
2019-02-02T03:55:17.271Z,19.20
2019-02-02T03:57:50.702Z,19.20
2019-02-02T04:00:25.742Z,19.20
2019-02-02T04:02:58.870Z,19.20
2019-02-02T04:05:33.735Z,19.20
2019-02-02T04:08:07.146Z,19.20
2019-02-02T04:10:40.297Z,19.10
2019-02-02T04:13:13.483Z,19.10
2019-02-02T04:15:49.229Z,19.00
2019-02-02T04:18:22.379Z,19.00
2019-02-02T04:20:55.574Z,19.00
2019-02-02T04:23:30.215Z,19.00
2019-02-02T04:26:10.504Z,19.00
2019-02-02T04:28:43.594Z,18.90
2019-02-02T04:31:16.760Z,18.90
2019-02-02T04:33:49.985Z,18.90
2019-02-02T04:36:24.334Z,18.80
2019-02-02T04:38:58.431Z,18.80
2019-02-02T04:41:33.250Z,18.80
2019-02-02T04:44:07.968Z,18.80
2019-02-02T04:46:41.106Z,18.80
2019-02-02T04:49:14.367Z,18.70
2019-02-02T04:51:48.865Z,18.70
2019-02-02T04:54:23.901Z,18.60
2019-02-02T04:56:57.446Z,18.60
2019-02-02T04:59:31.816Z,18.60
2019-02-02T05:02:05.044Z,18.50
2019-02-02T05:04:39.187Z,18.50
2019-02-02T05:07:13.482Z,18.60
2019-02-02T05:09:46.642Z,18.60
2019-02-02T05:12:20.178Z,18.50
2019-02-02T05:14:53.835Z,18.50
2019-02-02T05:17:28.014Z,18.50
2019-02-02T05:20:03.385Z,18.40
2019-02-02T05:22:36.515Z,18.40
2019-02-02T05:25:11.572Z,18.40
2019-02-02T05:27:44.830Z,18.30
2019-02-02T05:30:24.429Z,18.30
2019-02-02T05:32:57.783Z,18.40
2019-02-02T05:35:31.023Z,18.30
2019-02-02T05:38:04.215Z,18.30
2019-02-02T05:40:37.233Z,18.30
2019-02-02T05:43:12.039Z,18.20
2019-02-02T05:45:48.505Z,18.20
2019-02-02T05:48:22.867Z,18.10
2019-02-02T05:50:56.070Z,18.10
2019-02-02T05:53:29.305Z,18.10
2019-02-02T05:56:10.695Z,18.10
2019-02-02T05:58:43.853Z,18.10
2019-02-02T06:01:21.002Z,18.10
2019-02-02T06:03:55.410Z,18.10
2019-02-02T06:06:30.534Z,18.10
2019-02-02T06:09:05.042Z,18.00
2019-02-02T06:11:39.525Z,18.00
2019-02-02T06:14:13.984Z,17.90
2019-02-02T06:16:57.693Z,17.90
2019-02-02T06:19:31.954Z,17.80
2019-02-02T06:22:07.125Z,17.80
2019-02-02T06:24:40.226Z,17.70
2019-02-02T06:27:15.683Z,17.80
2019-02-02T06:29:49.498Z,17.90
2019-02-02T06:32:22.594Z,17.90
2019-02-02T06:34:55.641Z,17.90
2019-02-02T06:37:34.712Z,17.90
2019-02-02T06:40:10.421Z,17.90
2019-02-02T06:42:43.592Z,17.90
2019-02-02T06:45:25.229Z,17.80
2019-02-02T06:47:59.910Z,17.70
2019-02-02T06:50:33.455Z,17.70
2019-02-02T06:53:07.857Z,17.70
2019-02-02T06:55:43.156Z,17.60
2019-02-02T06:58:16.555Z,17.60
2019-02-02T07:00:49.726Z,17.60
2019-02-02T07:03:23.728Z,17.60
2019-02-02T07:06:03.650Z,17.60
2019-02-02T07:08:37.413Z,17.60
2019-02-02T07:11:12.511Z,17.50
2019-02-02T07:13:46.280Z,17.50
2019-02-02T07:16:19.526Z,17.40
2019-02-02T07:18:52.698Z,17.30
2019-02-02T07:21:25.854Z,17.40
2019-02-02T07:23:59.199Z,17.30
2019-02-02T07:26:36.298Z,17.30
2019-02-02T07:29:10.026Z,17.40
2019-02-02T07:31:44.190Z,17.30
2019-02-02T07:34:17.817Z,17.30
2019-02-02T07:36:52.724Z,17.30
2019-02-02T07:39:26.717Z,17.20
2019-02-02T07:42:00.463Z,17.20
2019-02-02T07:44:33.448Z,17.40
2019-02-02T07:47:09.264Z,17.40
2019-02-02T07:49:43.803Z,17.30
2019-02-02T07:52:17.278Z,17.30
2019-02-02T07:54:50.937Z,17.40
2019-02-02T07:57:24.165Z,17.40
2019-02-02T07:59:58.221Z,17.40
2019-02-02T08:02:31.310Z,17.40
2019-02-02T08:05:04.495Z,17.40
2019-02-02T08:07:39.759Z,17.40
2019-02-02T08:10:14.144Z,17.40
2019-02-02T08:12:48.589Z,17.40
2019-02-02T08:15:24.030Z,17.30
2019-02-02T08:17:57.234Z,17.40
2019-02-02T08:20:31.485Z,17.40
2019-02-02T08:23:04.650Z,17.40
2019-02-02T08:25:38.736Z,17.40
2019-02-02T08:28:11.954Z,17.30
2019-02-02T08:30:52.030Z,17.20
2019-02-02T08:33:19.796Z,17.20
2019-02-02T08:36:03.914Z,17.20
2019-02-02T08:38:37.702Z,17.30
2019-02-02T08:41:11.670Z,17.40
2019-02-02T08:43:44.704Z,17.50
2019-02-02T08:46:30.313Z,17.40
2019-02-02T08:49:03.346Z,17.40
2019-02-02T08:51:39.007Z,17.30
2019-02-02T08:54:12.171Z,17.20
2019-02-02T08:56:52.827Z,17.20
2019-02-02T08:59:27.430Z,17.20
2019-02-02T09:02:00.686Z,17.10
2019-02-02T09:04:33.882Z,17.30
2019-02-02T09:07:08.622Z,17.30
2019-02-02T09:09:41.720Z,17.20
2019-02-02T09:12:14.930Z,17.20
2019-02-02T09:14:49.195Z,17.20
2019-02-02T09:17:22.529Z,17.10
2019-02-02T09:19:56.226Z,17.10
2019-02-02T09:22:32.996Z,17.10
2019-02-02T09:25:08.060Z,17.10
2019-02-02T09:27:42.269Z,17.10
2019-02-02T09:30:29.983Z,17.10
2019-02-02T09:33:04.227Z,17.10
2019-02-02T09:35:37.143Z,17.10
2019-02-02T09:38:12.150Z,17.20
2019-02-02T09:40:46.347Z,17.30
2019-02-02T09:43:19.721Z,17.20
2019-02-02T09:45:54.577Z,17.20
2019-02-02T09:48:28.447Z,17.20
2019-02-02T09:51:05.023Z,17.20
2019-02-02T09:53:39.478Z,17.20
2019-02-02T09:56:14.752Z,17.10
2019-02-02T09:58:47.799Z,17.10
2019-02-02T10:01:27.354Z,17.10
2019-02-02T10:03:55.314Z,17.20
2019-02-02T10:06:31.178Z,17.20
2019-02-02T10:09:04.329Z,17.30
2019-02-02T10:11:39.799Z,17.20
2019-02-02T10:14:13.412Z,17.20
2019-02-02T10:16:48.944Z,17.20
2019-02-02T10:19:23.303Z,17.10
2019-02-02T10:21:58.438Z,17.20
2019-02-02T10:24:32.995Z,17.20
2019-02-02T10:27:08.177Z,17.20
2019-02-02T10:29:41.244Z,17.20
2019-02-02T10:32:17.001Z,17.20
2019-02-02T10:34:50.440Z,17.20
2019-02-02T10:37:26.271Z,17.20
2019-02-02T10:39:59.615Z,17.10
2019-02-02T10:42:32.971Z,17.20
2019-02-02T10:45:06.342Z,17.20
2019-02-02T10:47:42.816Z,17.20
2019-02-02T10:50:18.484Z,17.20
2019-02-02T10:52:51.782Z,17.20
2019-02-02T10:55:27.174Z,17.20
2019-02-02T10:58:03.166Z,17.10
2019-02-02T11:00:39.225Z,17.10
2019-02-02T11:03:12.258Z,17.10
2019-02-02T11:05:48.779Z,17.10
2019-02-02T11:08:22.842Z,17.10
2019-02-02T11:10:58.403Z,17.10
2019-02-02T11:13:31.695Z,17.00
2019-02-02T11:16:08.418Z,17.00
2019-02-02T11:18:40.992Z,16.90
2019-02-02T11:21:15.849Z,16.90
2019-02-02T11:23:49.191Z,16.90
2019-02-02T11:26:23.158Z,16.90
2019-02-02T11:28:56.647Z,17.00
2019-02-02T11:31:29.667Z,17.00
2019-02-02T11:34:02.853Z,17.00
2019-02-02T11:36:43.814Z,16.90
2019-02-02T11:39:16.825Z,16.90
2019-02-02T11:41:51.077Z,16.80
2019-02-02T11:44:25.408Z,16.80
2019-02-02T11:46:58.726Z,16.80
2019-02-02T11:49:31.737Z,16.80
2019-02-02T11:52:06.150Z,16.80
2019-02-02T11:54:39.287Z,16.80
2019-02-02T11:57:13.736Z,16.80
2019-02-02T11:59:46.826Z,16.80
2019-02-02T12:02:20.490Z,16.90
2019-02-02T12:04:54.741Z,16.90
2019-02-02T12:07:27.772Z,16.90
2019-02-02T12:10:01.620Z,16.90
2019-02-02T12:12:34.987Z,16.90
2019-02-02T12:15:10.454Z,16.90
2019-02-02T12:17:55.050Z,16.90
2019-02-02T12:20:28.251Z,16.90
2019-02-02T12:23:02.924Z,16.90
2019-02-02T12:25:37.830Z,16.90
2019-02-02T12:28:12.149Z,16.90
2019-02-02T12:30:45.218Z,16.90
2019-02-02T12:33:19.702Z,16.90
2019-02-02T12:35:54.122Z,16.80
2019-02-02T12:38:28.308Z,16.80
2019-02-02T12:41:03.603Z,16.70
2019-02-02T12:43:36.943Z,16.70
2019-02-02T12:46:24.976Z,16.70
2019-02-02T12:48:58.657Z,16.70
2019-02-02T12:51:31.905Z,16.80
2019-02-02T12:54:07.648Z,16.80
2019-02-02T12:56:43.150Z,16.80
2019-02-02T12:59:16.240Z,16.80
2019-02-02T13:01:49.536Z,16.70
2019-02-02T13:04:22.896Z,16.70
2019-02-02T13:06:57.241Z,16.70
2019-02-02T13:09:31.868Z,16.80
2019-02-02T13:12:07.379Z,16.90
2019-02-02T13:14:40.742Z,16.90
2019-02-02T13:17:26.685Z,17.00
2019-02-02T13:20:00.003Z,17.00
2019-02-02T13:22:34.813Z,17.00
2019-02-02T13:25:09.522Z,17.10
2019-02-02T13:27:46.396Z,17.10
2019-02-02T13:30:33.469Z,17.10
2019-02-02T13:33:07.270Z,17.10
2019-02-02T13:35:44.745Z,17.10
2019-02-02T13:38:18.091Z,17.10
2019-02-02T13:40:51.540Z,17.10
2019-02-02T13:43:25.035Z,17.20
2019-02-02T13:46:07.244Z,17.20
2019-02-02T13:48:40.583Z,17.20
2019-02-02T13:51:13.724Z,17.30
2019-02-02T13:53:48.461Z,17.30
2019-02-02T13:56:21.833Z,17.30
2019-02-02T13:58:56.381Z,17.40
2019-02-02T14:01:41.438Z,17.40
2019-02-02T14:04:06.264Z,17.50
2019-02-02T14:06:39.869Z,17.70
2019-02-02T14:09:14.013Z,17.80
2019-02-02T14:11:47.223Z,17.90
2019-02-02T14:14:21.381Z,18.00
2019-02-02T14:16:55.949Z,18.00
2019-02-02T14:19:30.293Z,18.00
2019-02-02T14:22:04.733Z,18.00
2019-02-02T14:24:39.978Z,18.10
2019-02-02T14:27:15.079Z,18.20
2019-02-02T14:29:49.368Z,18.20
2019-02-02T14:32:22.447Z,18.30
2019-02-02T14:34:56.510Z,18.30
2019-02-02T14:37:32.279Z,18.30
2019-02-02T14:40:08.981Z,18.50
2019-02-02T14:42:43.377Z,18.50
2019-02-02T14:45:20.745Z,18.50
2019-02-02T14:47:55.693Z,18.60
2019-02-02T14:50:31.931Z,18.70
2019-02-02T14:53:04.424Z,18.90
2019-02-02T14:55:37.450Z,19.00
2019-02-02T14:58:11.933Z,19.00
2019-02-02T15:00:45.316Z,19.00
2019-02-02T15:03:25.493Z,19.10
2019-02-02T15:05:53.310Z,19.00
2019-02-02T15:08:27.302Z,19.10
2019-02-02T15:11:01.829Z,19.20
2019-02-02T15:13:36.165Z,19.20
2019-02-02T15:16:10.625Z,19.30
2019-02-02T15:18:43.760Z,19.40
2019-02-02T15:21:18.306Z,19.50
2019-02-02T15:23:51.538Z,19.50
2019-02-02T15:26:25.702Z,19.60
2019-02-02T15:29:00.979Z,19.60
2019-02-02T15:31:34.644Z,19.60
2019-02-02T15:34:10.189Z,19.70
2019-02-02T15:36:55.431Z,19.80
2019-02-02T15:39:32.707Z,19.80
2019-02-02T15:42:06.639Z,19.80
2019-02-02T15:44:39.919Z,19.80
2019-02-02T15:47:13.211Z,19.70
2019-02-02T15:49:49.563Z,19.80
2019-02-02T15:52:22.686Z,19.90
2019-02-02T15:54:56.178Z,20.00
2019-02-02T15:57:39.575Z,20.10
2019-02-02T16:00:22.769Z,20.10
2019-02-02T16:02:56.286Z,20.10
2019-02-02T16:05:36.322Z,20.20
2019-02-02T16:08:19.362Z,20.20
2019-02-02T16:10:52.577Z,20.30
2019-02-02T16:13:25.798Z,20.40
2019-02-02T16:16:01.278Z,20.40
2019-02-02T16:18:35.650Z,20.50
2019-02-02T16:21:08.787Z,20.60
2019-02-02T16:23:41.931Z,20.60
2019-02-02T16:26:17.621Z,20.60
2019-02-02T16:28:50.899Z,20.70
2019-02-02T16:31:24.251Z,20.80
2019-02-02T16:34:02.039Z,20.90
2019-02-02T16:36:33.193Z,21.00
2019-02-02T16:39:10.062Z,21.00
2019-02-02T16:41:44.415Z,21.10
2019-02-02T16:44:18.992Z,21.30
2019-02-02T16:46:55.909Z,21.30
2019-02-02T16:49:29.085Z,21.40
2019-02-02T16:52:03.671Z,21.50
2019-02-02T16:54:38.326Z,21.50
2019-02-02T16:57:11.732Z,21.70
2019-02-02T16:59:44.788Z,21.60
2019-02-02T17:02:19.328Z,21.50
2019-02-02T17:04:55.123Z,21.60
2019-02-02T17:07:29.406Z,21.70
2019-02-02T17:10:02.535Z,21.90
2019-02-02T17:12:36.934Z,22.10
2019-02-02T17:15:10.666Z,22.00
2019-02-02T17:17:46.422Z,22.10
2019-02-02T17:20:22.074Z,22.30
2019-02-02T17:22:55.775Z,22.40
2019-02-02T17:25:28.867Z,22.30
2019-02-02T17:28:03.217Z,22.30
2019-02-02T17:30:36.646Z,22.20
2019-02-02T17:33:12.058Z,22.20
2019-02-02T17:35:48.963Z,22.20
2019-02-02T17:38:22.198Z,22.30
2019-02-02T17:40:55.510Z,22.40
2019-02-02T17:43:28.670Z,22.50
2019-02-02T17:46:02.770Z,22.50
2019-02-02T17:48:35.886Z,22.60
2019-02-02T17:51:09.038Z,22.70
2019-02-02T17:53:43.472Z,22.80
2019-02-02T17:56:18.008Z,22.80
2019-02-02T17:58:52.401Z,22.90
2019-02-02T18:01:25.847Z,23.10
2019-02-02T18:03:58.902Z,23.30
2019-02-02T18:06:32.183Z,23.30
2019-02-02T18:09:08.961Z,23.40
2019-02-02T18:11:43.209Z,23.50
2019-02-02T18:14:17.896Z,23.50
2019-02-02T18:16:53.345Z,23.50
2019-02-02T18:19:27.230Z,23.60
2019-02-02T18:22:00.522Z,23.80
2019-02-02T18:24:34.853Z,23.80
2019-02-02T18:27:08.013Z,23.90
2019-02-02T18:29:43.620Z,24.10
2019-02-02T18:32:17.594Z,24.30
2019-02-02T18:34:51.781Z,24.40
2019-02-02T18:37:32.337Z,24.60
2019-02-02T18:40:05.720Z,24.40
2019-02-02T18:42:38.826Z,24.20
2019-02-02T18:45:13.121Z,24.10
2019-02-02T18:47:53.678Z,24.10
2019-02-02T18:50:26.863Z,24.00
2019-02-02T18:53:00.344Z,23.90
2019-02-02T18:55:43.010Z,23.80
2019-02-02T18:58:16.978Z,23.90
2019-02-02T19:00:50.171Z,24.10
2019-02-02T19:03:23.634Z,24.20
2019-02-02T19:05:56.754Z,24.40
2019-02-02T19:08:29.807Z,24.60
2019-02-02T19:11:03.764Z,24.60
2019-02-02T19:13:37.443Z,24.70
2019-02-02T19:16:12.940Z,24.70
2019-02-02T19:18:47.119Z,24.80
2019-02-02T19:21:20.317Z,24.80
2019-02-02T19:23:56.126Z,24.90
2019-02-02T19:26:30.342Z,25.00
2019-02-02T19:29:03.378Z,24.90
2019-02-02T19:31:38.896Z,25.00
2019-02-02T19:34:12.826Z,25.00
2019-02-02T19:36:46.537Z,24.90
2019-02-02T19:39:19.706Z,24.80
2019-02-02T19:41:52.941Z,24.70
2019-02-02T19:44:26.017Z,24.70
2019-02-02T19:47:00.439Z,24.70
2019-02-02T19:49:34.732Z,24.90
2019-02-02T19:52:08.018Z,25.20
2019-02-02T19:54:42.319Z,25.20
2019-02-02T19:57:15.846Z,25.40
2019-02-02T19:59:52.045Z,25.40
2019-02-02T20:02:25.110Z,25.60
2019-02-02T20:04:58.380Z,25.30
2019-02-02T20:07:32.565Z,25.30
2019-02-02T20:10:08.081Z,25.40
2019-02-02T20:12:41.730Z,25.90
2019-02-02T20:15:17.431Z,25.70
2019-02-02T20:17:50.903Z,25.40
2019-02-02T20:20:25.544Z,25.10
2019-02-02T20:22:59.104Z,24.80
2019-02-02T20:25:33.429Z,24.70
2019-02-02T20:28:06.626Z,24.70
2019-02-02T20:30:39.791Z,24.80
2019-02-02T20:33:12.772Z,25.10
2019-02-02T20:35:48.544Z,25.20
2019-02-02T20:38:22.595Z,25.00
2019-02-02T20:40:56.818Z,24.60
2019-02-02T20:43:31.686Z,24.50
2019-02-02T20:46:05.069Z,24.70
2019-02-02T20:48:38.119Z,24.90
2019-02-02T20:51:11.299Z,25.10
2019-02-02T20:53:44.283Z,25.20
2019-02-02T20:56:18.961Z,25.50
2019-02-02T20:58:52.104Z,25.30
2019-02-02T21:01:25.319Z,25.20
2019-02-02T21:03:58.500Z,25.40
2019-02-02T21:06:39.132Z,25.50
2019-02-02T21:09:13.563Z,25.30
2019-02-02T21:11:56.722Z,25.00
2019-02-02T21:14:23.656Z,25.10
2019-02-02T21:16:57.841Z,25.00
2019-02-02T21:19:32.264Z,25.00
2019-02-02T21:22:05.297Z,25.00
2019-02-02T21:24:38.564Z,25.00
2019-02-02T21:27:12.693Z,25.20
2019-02-02T21:29:46.293Z,25.60
2019-02-02T21:32:19.423Z,25.80
2019-02-02T21:34:52.602Z,25.90
2019-02-02T21:37:27.784Z,25.90
2019-02-02T21:40:01.266Z,25.90
2019-02-02T21:42:34.916Z,25.20
2019-02-02T21:45:09.979Z,24.80
2019-02-02T21:47:43.841Z,24.80
2019-02-02T21:50:20.567Z,24.80
2019-02-02T21:52:55.338Z,24.90
2019-02-02T21:55:30.769Z,25.10
2019-02-02T21:58:05.101Z,25.00
2019-02-02T22:00:44.225Z,25.20
2019-02-02T22:03:20.216Z,25.40
2019-02-02T22:06:01.887Z,25.40
2019-02-02T22:08:40.022Z,25.40
2019-02-02T22:11:13.591Z,25.20
2019-02-02T22:13:46.795Z,25.00
2019-02-02T22:16:20.003Z,24.90
2019-02-02T22:18:54.845Z,25.00
2019-02-02T22:21:29.404Z,24.90
2019-02-02T22:24:02.533Z,24.70
2019-02-02T22:26:35.640Z,24.50
2019-02-02T22:29:08.781Z,24.40
2019-02-02T22:31:41.977Z,24.30
2019-02-02T22:34:15.545Z,24.10
2019-02-02T22:36:49.047Z,24.00
2019-02-02T22:39:23.135Z,23.90
2019-02-02T22:41:56.486Z,23.70
2019-02-02T22:44:29.626Z,23.50
2019-02-02T22:47:05.008Z,23.30
2019-02-02T22:49:38.119Z,23.20
2019-02-02T22:52:11.350Z,23.20
2019-02-02T22:54:46.986Z,23.10
2019-02-02T22:57:27.823Z,23.00
2019-02-02T23:00:00.959Z,22.90
2019-02-02T23:02:35.306Z,22.80
2019-02-02T23:05:20.527Z,22.60
2019-02-02T23:08:26.587Z,22.50
2019-02-02T23:11:34.706Z,22.40
2019-02-02T23:14:52.226Z,22.30
2019-02-02T23:17:27.494Z,22.10
2019-02-02T23:20:02.772Z,22.10
2019-02-02T23:22:35.947Z,22.10
2019-02-02T23:25:10.928Z,22.00
2019-02-02T23:28:03.249Z,21.90
2019-02-02T23:30:36.750Z,21.80
2019-02-02T23:33:09.900Z,21.80
2019-02-02T23:35:52.219Z,21.70
2019-02-02T23:38:26.504Z,21.70
2019-02-02T23:40:59.778Z,21.60
2019-02-02T23:43:33.240Z,21.60
2019-02-02T23:46:10.407Z,21.50
2019-02-02T23:48:43.491Z,21.30
2019-02-02T23:51:17.885Z,21.30
2019-02-02T23:53:51.113Z,21.20
2019-02-02T23:56:25.425Z,21.10
2019-02-02T23:59:00.523Z,21.10
